Coraopolis, PA

2:40 AM EDT on September 29, 2016 (GMT -0400)
Moon Township | | Change Station

Elev 1073 ft 40.52 °N, 80.20 °W | Updated 5 seconds ago

Rain
Rain
62.4 °F
Feels Like 62.4 °F
N
0.0
Wind Variable Wind from East

Today
High -- | Low -- °F
--% Chance of Precip.
Yesterday
High -- | Low -- °F
Precip. -- in
Pressure 30.01 in
Visibility 10.0 miles
Clouds Overcast 1900 ft
Dew Point 58 °F
Humidity 86%
Rainfall 0.00 in
Snow Depth Not available.
7:15 AM 7:05 PM
Waning Crescent, 3% visible
METAR KPIT 290551Z 15004KT 10SM OVC019 18/16 A3000 RMK AO2 SLP160 T01780156 10189 20172 52008
Pressure 30.01 in
Visibility 10.0 miles
Clouds Overcast 1900 ft
Dew Point 58 °F
Humidity 86%
Rainfall 0.00 in
Snow Depth Not available.
7:15 AM 7:05 PM
Waning Crescent, 3% visible
METAR KPIT 290551Z 15004KT 10SM OVC019 18/16 A3000 RMK AO2 SLP160 T01780156 10189 20172 52008

10-Day Weather Forecast

Almanac

Astronomy

Sep. 29, 2016 Rise Set
Actual Time
Civil Twilight
Nautical Twilight
Astronomical Twilight
Moon
Length of Visible Light
Length of Day
Tomorrow will be .
, % of the Moon is Illuminated

Today's Extremes

State Highs State Lows

Community

WunderPhotos

Upload Photos

1,942,446 photos uploaded!

WunderBlog® & News

Nearby

Air Quality

  Air Quality AQ Index Pollutant
Not available.

Snow Depth

Station Depth Elevation

Earthquake Activity

City Distance Mag. Time & Date
Minimum magnitude displayed is 2.5.

Coastal Water Temperatures

Place Temperature

Stations

Nearby Weather Stations

Station Location Temp. Windchill Dew Point Humidity Wind Precip. Elev Updated Type
                   

Watches & Warnings

There are currently no watches in effect.